GRLLA EGNT-EGKA
Flight info
| Callsign | GRLLA |
|---|---|
| Flight time | N/A |
| Altitude | 11000 |
| Route | N0190F100 BATLI Y70 POL/N0190F110 P18 STAFA L8 HON N859 GWC |
| Aircraft | BE58/L-SBDFGRY/C |
Departure
| Time | N/A |
|---|---|
| Airport | Newcastle International Airport (EGNT) |
Arrival
| Time | 2026-04-19 10:42 |
|---|---|
| Airport | Brighton City Airport (EGKA) |
| Time | Latitude | Longitude | Altitude | Speed | Heading |
|---|---|---|---|---|---|
| 2026-04-19 08:59 | 53.78846 | -1.21038 | 30 ft | 0 kts | 333° |
| 2026-04-19 09:08 | 53.78851 | -1.21043 | 30 ft | 1 kts | 334° |
| 2026-04-19 09:09 | 53.78856 | -1.21073 | 30 ft | 5 kts | 245° |
| 2026-04-19 09:09 | 53.78830 | -1.21149 | 29 ft | 8 kts | 239° |
| 2026-04-19 09:09 | 53.78806 | -1.21235 | 29 ft | 7 kts | 214° |
| 2026-04-19 09:09 | 53.78750 | -1.21252 | 29 ft | 9 kts | 186° |
| 2026-04-19 09:10 | 53.78685 | -1.21267 | 29 ft | 9 kts | 188° |
| 2026-04-19 09:10 | 53.78617 | -1.21282 | 29 ft | 10 kts | 188° |
| 2026-04-19 09:10 | 53.78547 | -1.21301 | 29 ft | 10 kts | 188° |
| 2026-04-19 09:10 | 53.78477 | -1.21317 | 29 ft | 10 kts | 188° |
| 2026-04-19 09:11 | 53.78406 | -1.21324 | 28 ft | 9 kts | 152° |
| 2026-04-19 09:11 | 53.78387 | -1.21227 | 28 ft | 8 kts | 103° |
| 2026-04-19 09:11 | 53.78375 | -1.21151 | 28 ft | 3 kts | 145° |
| 2026-04-19 09:11 | 53.78371 | -1.21150 | 28 ft | 0 kts | 187° |
| 2026-04-19 09:15 | 53.78341 | -1.21175 | 28 ft | 7 kts | 263° |
| 2026-04-19 09:16 | 53.78344 | -1.21198 | 28 ft | 0 kts | 284° |
| 2026-04-19 09:16 | 53.78347 | -1.21219 | 28 ft | 17 kts | 284° |
| 2026-04-19 09:16 | 53.78447 | -1.21943 | 60 ft | 94 kts | 286° |
| 2026-04-19 09:16 | 53.78594 | -1.23072 | 506 ft | 101 kts | 285° |
| 2026-04-19 09:17 | 53.78685 | -1.24066 | 1226 ft | 82 kts | 281° |
| 2026-04-19 09:17 | 53.78736 | -1.25060 | 1665 ft | 89 kts | 277° |
| 2026-04-19 09:17 | 53.78516 | -1.26092 | 1990 ft | 106 kts | 233° |
| 2026-04-19 09:17 | 53.77787 | -1.26839 | 2066 ft | 138 kts | 204° |
| 2026-04-19 09:18 | 53.76870 | -1.27292 | 2437 ft | 134 kts | 192° |
| 2026-04-19 09:18 | 53.76040 | -1.27470 | 3045 ft | 109 kts | 185° |
| 2026-04-19 09:18 | 53.75269 | -1.27548 | 3293 ft | 126 kts | 184° |
| 2026-04-19 09:18 | 53.74283 | -1.27602 | 3291 ft | 153 kts | 182° |
| 2026-04-19 09:19 | 53.73177 | -1.27875 | 3385 ft | 165 kts | 198° |
| 2026-04-19 09:19 | 53.72106 | -1.28571 | 3562 ft | 168 kts | 207° |
| 2026-04-19 09:19 | 53.71055 | -1.29477 | 3754 ft | 170 kts | 211° |
| 2026-04-19 09:19 | 53.70033 | -1.30461 | 4027 ft | 166 kts | 213° |
| 2026-04-19 09:20 | 53.69059 | -1.31437 | 4355 ft | 160 kts | 214° |
| 2026-04-19 09:20 | 53.68127 | -1.32384 | 4703 ft | 154 kts | 215° |
| 2026-04-19 09:20 | 53.67231 | -1.33302 | 5022 ft | 150 kts | 215° |
| 2026-04-19 09:20 | 53.66341 | -1.34214 | 5321 ft | 148 kts | 216° |
| 2026-04-19 09:21 | 53.65459 | -1.35126 | 5590 ft | 148 kts | 219° |
| 2026-04-19 09:21 | 53.64910 | -1.36475 | 5831 ft | 140 kts | 264° |
| 2026-04-19 09:21 | 53.64934 | -1.38074 | 6096 ft | 136 kts | 283° |
| 2026-04-19 09:21 | 53.65103 | -1.39626 | 6361 ft | 136 kts | 286° |
| 2026-04-19 09:22 | 53.65293 | -1.41169 | 6624 ft | 136 kts | 287° |
| 2026-04-19 09:22 | 53.65494 | -1.42728 | 6872 ft | 137 kts | 287° |
| 2026-04-19 09:22 | 53.65703 | -1.44303 | 7097 ft | 140 kts | 287° |
| 2026-04-19 09:22 | 53.65918 | -1.45919 | 7328 ft | 141 kts | 287° |
| 2026-04-19 09:23 | 53.66136 | -1.47544 | 7564 ft | 142 kts | 287° |
| 2026-04-19 09:23 | 53.66351 | -1.49154 | 7802 ft | 142 kts | 287° |
| 2026-04-19 09:23 | 53.66571 | -1.50799 | 8047 ft | 142 kts | 287° |
| 2026-04-19 09:23 | 53.66787 | -1.52413 | 8290 ft | 142 kts | 287° |
| 2026-04-19 09:24 | 53.67005 | -1.54043 | 8534 ft | 142 kts | 287° |
| 2026-04-19 09:24 | 53.67222 | -1.55669 | 8768 ft | 142 kts | 288° |
| 2026-04-19 09:24 | 53.67435 | -1.57268 | 9000 ft | 141 kts | 288° |
| 2026-04-19 09:24 | 53.67650 | -1.58885 | 9208 ft | 142 kts | 288° |
| 2026-04-19 09:25 | 53.67867 | -1.60515 | 9414 ft | 143 kts | 288° |
| 2026-04-19 09:25 | 53.68082 | -1.62135 | 9625 ft | 142 kts | 288° |
| 2026-04-19 09:25 | 53.68299 | -1.63774 | 9840 ft | 142 kts | 288° |
| 2026-04-19 09:25 | 53.68513 | -1.65379 | 10047 ft | 142 kts | 287° |
| 2026-04-19 09:26 | 53.68728 | -1.67003 | 10255 ft | 142 kts | 287° |
| 2026-04-19 09:26 | 53.68953 | -1.68695 | 10309 ft | 152 kts | 287° |
| 2026-04-19 09:26 | 53.69191 | -1.70487 | 10303 ft | 161 kts | 287° |
| 2026-04-19 09:26 | 53.69436 | -1.72348 | 10303 ft | 164 kts | 286° |
| 2026-04-19 09:27 | 53.69684 | -1.74236 | 10302 ft | 165 kts | 287° |
| 2026-04-19 09:27 | 53.69931 | -1.76113 | 10304 ft | 165 kts | 287° |
| 2026-04-19 09:27 | 53.70179 | -1.78014 | 10302 ft | 165 kts | 287° |
| 2026-04-19 09:27 | 53.70425 | -1.79885 | 10299 ft | 164 kts | 287° |
| 2026-04-19 09:28 | 53.70671 | -1.81757 | 10302 ft | 164 kts | 287° |
| 2026-04-19 09:28 | 53.70919 | -1.83653 | 10300 ft | 165 kts | 287° |
| 2026-04-19 09:28 | 53.71167 | -1.85544 | 10301 ft | 166 kts | 287° |
| 2026-04-19 09:28 | 53.71416 | -1.87445 | 10301 ft | 167 kts | 287° |
| 2026-04-19 09:29 | 53.71667 | -1.89375 | 10300 ft | 168 kts | 287° |
| 2026-04-19 09:29 | 53.71918 | -1.91300 | 10301 ft | 168 kts | 287° |
| 2026-04-19 09:29 | 53.72166 | -1.93209 | 10305 ft | 168 kts | 286° |
| 2026-04-19 09:29 | 53.72418 | -1.95151 | 10304 ft | 169 kts | 287° |
| 2026-04-19 09:30 | 53.72669 | -1.97081 | 10301 ft | 169 kts | 286° |
| 2026-04-19 09:30 | 53.72920 | -1.99030 | 10293 ft | 169 kts | 287° |
| 2026-04-19 09:30 | 53.73169 | -2.00952 | 10293 ft | 169 kts | 287° |
| 2026-04-19 09:30 | 53.73418 | -2.02881 | 10299 ft | 169 kts | 287° |
| 2026-04-19 09:31 | 53.73669 | -2.04827 | 10295 ft | 169 kts | 287° |
| 2026-04-19 09:31 | 53.73917 | -2.06752 | 10294 ft | 169 kts | 287° |
| 2026-04-19 09:31 | 53.73903 | -2.08751 | 10294 ft | 179 kts | 253° |
| 2026-04-19 09:31 | 53.73023 | -2.10253 | 10290 ft | 194 kts | 210° |
| 2026-04-19 09:32 | 53.71669 | -2.10733 | 10291 ft | 199 kts | 191° |
| 2026-04-19 09:32 | 53.70303 | -2.10972 | 10291 ft | 200 kts | 190° |
| 2026-04-19 09:32 | 53.68919 | -2.11199 | 10289 ft | 201 kts | 190° |
| 2026-04-19 09:32 | 53.67520 | -2.11429 | 10287 ft | 201 kts | 190° |
| 2026-04-19 09:33 | 53.66127 | -2.11654 | 10291 ft | 201 kts | 190° |
| 2026-04-19 09:33 | 53.64753 | -2.11876 | 10293 ft | 201 kts | 190° |
| 2026-04-19 09:33 | 53.63364 | -2.12100 | 10294 ft | 200 kts | 190° |
| 2026-04-19 09:33 | 53.61968 | -2.12325 | 10294 ft | 200 kts | 190° |
| 2026-04-19 09:34 | 53.60591 | -2.12546 | 10301 ft | 201 kts | 190° |
| 2026-04-19 09:34 | 53.59207 | -2.12769 | 10305 ft | 201 kts | 190° |
| 2026-04-19 09:34 | 53.57820 | -2.12992 | 10306 ft | 201 kts | 190° |
| 2026-04-19 09:34 | 53.56430 | -2.13215 | 10306 ft | 201 kts | 190° |
| 2026-04-19 09:35 | 53.55030 | -2.13439 | 10307 ft | 201 kts | 190° |
| 2026-04-19 09:35 | 53.53653 | -2.13660 | 10314 ft | 200 kts | 190° |
| 2026-04-19 09:35 | 53.52258 | -2.13883 | 10320 ft | 201 kts | 190° |
| 2026-04-19 09:35 | 53.50871 | -2.14106 | 10321 ft | 201 kts | 189° |
| 2026-04-19 09:36 | 53.49475 | -2.14329 | 10321 ft | 201 kts | 189° |
| 2026-04-19 09:36 | 53.48075 | -2.14552 | 10315 ft | 201 kts | 190° |
| 2026-04-19 09:36 | 53.46679 | -2.14775 | 10315 ft | 201 kts | 190° |
| 2026-04-19 09:36 | 53.45301 | -2.14994 | 10315 ft | 201 kts | 190° |
| 2026-04-19 09:37 | 53.43907 | -2.15216 | 10316 ft | 201 kts | 190° |
| 2026-04-19 09:37 | 53.42512 | -2.15439 | 10318 ft | 201 kts | 190° |
| 2026-04-19 09:37 | 53.41118 | -2.15661 | 10320 ft | 201 kts | 190° |
| 2026-04-19 09:37 | 53.39733 | -2.15882 | 10319 ft | 201 kts | 190° |
| 2026-04-19 09:38 | 53.38332 | -2.16105 | 10323 ft | 201 kts | 190° |
| 2026-04-19 09:38 | 53.36950 | -2.16324 | 10325 ft | 201 kts | 190° |
| 2026-04-19 09:38 | 53.35560 | -2.16546 | 10323 ft | 201 kts | 190° |
| 2026-04-19 09:38 | 53.34163 | -2.16767 | 10323 ft | 201 kts | 190° |
| 2026-04-19 09:39 | 53.32779 | -2.16987 | 10320 ft | 201 kts | 190° |
| 2026-04-19 09:39 | 53.31393 | -2.17206 | 10322 ft | 201 kts | 190° |
| 2026-04-19 09:39 | 53.29988 | -2.17429 | 10319 ft | 201 kts | 190° |
| 2026-04-19 09:39 | 53.28597 | -2.17650 | 10320 ft | 201 kts | 190° |
| 2026-04-19 09:40 | 53.27204 | -2.17869 | 10320 ft | 202 kts | 190° |
| 2026-04-19 09:40 | 53.25815 | -2.18090 | 10317 ft | 202 kts | 190° |
| 2026-04-19 09:40 | 53.24409 | -2.18311 | 10317 ft | 202 kts | 190° |
| 2026-04-19 09:40 | 53.23015 | -2.18531 | 10316 ft | 202 kts | 190° |
| 2026-04-19 09:41 | 53.21632 | -2.18749 | 10310 ft | 202 kts | 190° |
| 2026-04-19 09:41 | 53.20228 | -2.18971 | 10310 ft | 201 kts | 190° |
| 2026-04-19 09:41 | 53.18838 | -2.19190 | 10313 ft | 201 kts | 190° |
| 2026-04-19 09:41 | 53.17448 | -2.19409 | 10312 ft | 201 kts | 190° |
| 2026-04-19 09:42 | 53.16057 | -2.19628 | 10314 ft | 201 kts | 190° |
| 2026-04-19 09:42 | 53.14657 | -2.19848 | 10312 ft | 201 kts | 190° |
| 2026-04-19 09:42 | 53.13271 | -2.20066 | 10309 ft | 201 kts | 190° |
| 2026-04-19 09:42 | 53.11879 | -2.20284 | 10308 ft | 202 kts | 190° |
| 2026-04-19 09:43 | 53.10492 | -2.20502 | 10309 ft | 202 kts | 190° |
| 2026-04-19 09:43 | 53.09080 | -2.20723 | 10307 ft | 202 kts | 190° |
| 2026-04-19 09:43 | 53.07681 | -2.20942 | 10306 ft | 202 kts | 190° |
| 2026-04-19 09:43 | 53.06294 | -2.21159 | 10306 ft | 201 kts | 190° |
| 2026-04-19 09:44 | 53.04896 | -2.21378 | 10302 ft | 201 kts | 190° |
| 2026-04-19 09:44 | 53.03502 | -2.21595 | 10306 ft | 201 kts | 190° |
| 2026-04-19 09:44 | 53.02122 | -2.21810 | 10307 ft | 201 kts | 190° |
| 2026-04-19 09:44 | 53.00739 | -2.22027 | 10308 ft | 201 kts | 190° |
| 2026-04-19 09:45 | 52.99346 | -2.22243 | 10307 ft | 201 kts | 190° |
| 2026-04-19 09:45 | 52.97954 | -2.22459 | 10311 ft | 200 kts | 190° |
| 2026-04-19 09:45 | 52.96576 | -2.22673 | 10316 ft | 200 kts | 190° |
| 2026-04-19 09:45 | 52.95194 | -2.22887 | 10319 ft | 201 kts | 190° |
| 2026-04-19 09:46 | 52.93786 | -2.23105 | 10322 ft | 201 kts | 190° |
| 2026-04-19 09:46 | 52.92410 | -2.23319 | 10320 ft | 202 kts | 190° |
| 2026-04-19 09:46 | 52.90996 | -2.23539 | 10320 ft | 202 kts | 190° |
| 2026-04-19 09:46 | 52.89609 | -2.23752 | 10320 ft | 202 kts | 190° |
| 2026-04-19 09:47 | 52.88202 | -2.23970 | 10320 ft | 202 kts | 190° |
| 2026-04-19 09:47 | 52.86812 | -2.24173 | 10320 ft | 202 kts | 186° |
| 2026-04-19 09:47 | 52.85466 | -2.23471 | 10327 ft | 206 kts | 149° |
| 2026-04-19 09:47 | 52.84287 | -2.22154 | 10323 ft | 206 kts | 145° |
| 2026-04-19 09:48 | 52.83120 | -2.20793 | 10318 ft | 207 kts | 145° |
| 2026-04-19 09:48 | 52.81942 | -2.19419 | 10320 ft | 207 kts | 145° |
| 2026-04-19 09:48 | 52.80769 | -2.18056 | 10321 ft | 207 kts | 145° |
| 2026-04-19 09:48 | 52.79588 | -2.16685 | 10325 ft | 207 kts | 145° |
| 2026-04-19 09:49 | 52.78415 | -2.15324 | 10330 ft | 207 kts | 145° |
| 2026-04-19 09:49 | 52.77247 | -2.13970 | 10332 ft | 207 kts | 145° |
| 2026-04-19 09:49 | 52.76066 | -2.12602 | 10333 ft | 207 kts | 145° |
| 2026-04-19 09:49 | 52.74890 | -2.11241 | 10333 ft | 207 kts | 145° |
| 2026-04-19 09:50 | 52.73709 | -2.09876 | 10332 ft | 207 kts | 145° |
| 2026-04-19 09:50 | 52.72532 | -2.08515 | 10329 ft | 207 kts | 145° |
| 2026-04-19 09:50 | 52.71358 | -2.07160 | 10340 ft | 207 kts | 145° |
| 2026-04-19 09:50 | 52.70171 | -2.05791 | 10334 ft | 207 kts | 145° |
| 2026-04-19 09:51 | 52.68982 | -2.04419 | 10333 ft | 207 kts | 145° |
| 2026-04-19 09:51 | 52.67807 | -2.03065 | 10330 ft | 207 kts | 145° |
| 2026-04-19 09:51 | 52.66634 | -2.01714 | 10334 ft | 207 kts | 145° |
| 2026-04-19 09:51 | 52.65456 | -2.00359 | 10335 ft | 207 kts | 145° |
| 2026-04-19 09:52 | 52.64282 | -1.99009 | 10335 ft | 207 kts | 145° |
| 2026-04-19 09:52 | 52.63101 | -1.97651 | 10335 ft | 207 kts | 145° |
| 2026-04-19 09:52 | 52.61923 | -1.96297 | 10336 ft | 207 kts | 145° |
| 2026-04-19 09:52 | 52.60739 | -1.94938 | 10337 ft | 207 kts | 145° |
| 2026-04-19 09:53 | 52.59551 | -1.93576 | 10335 ft | 207 kts | 145° |
| 2026-04-19 09:53 | 52.58371 | -1.92223 | 10338 ft | 208 kts | 145° |
| 2026-04-19 09:53 | 52.57185 | -1.90865 | 10335 ft | 208 kts | 145° |
| 2026-04-19 09:53 | 52.56011 | -1.89522 | 10333 ft | 208 kts | 145° |
| 2026-04-19 09:54 | 52.54815 | -1.88154 | 10333 ft | 208 kts | 145° |
| 2026-04-19 09:54 | 52.53641 | -1.86811 | 10331 ft | 208 kts | 145° |
| 2026-04-19 09:54 | 52.52449 | -1.85450 | 10330 ft | 207 kts | 145° |
| 2026-04-19 09:54 | 52.51272 | -1.84105 | 10329 ft | 207 kts | 145° |
| 2026-04-19 09:55 | 52.50083 | -1.82749 | 10331 ft | 207 kts | 145° |
| 2026-04-19 09:55 | 52.48901 | -1.81402 | 10330 ft | 207 kts | 145° |
| 2026-04-19 09:55 | 52.47723 | -1.80059 | 10331 ft | 207 kts | 145° |
| 2026-04-19 09:55 | 52.46540 | -1.78712 | 10331 ft | 207 kts | 145° |
| 2026-04-19 09:56 | 52.45359 | -1.77369 | 10331 ft | 207 kts | 145° |
| 2026-04-19 09:56 | 52.44175 | -1.76022 | 10332 ft | 208 kts | 145° |
| 2026-04-19 09:56 | 52.42981 | -1.74665 | 10332 ft | 207 kts | 145° |
| 2026-04-19 09:56 | 52.41804 | -1.73329 | 10334 ft | 207 kts | 145° |
| 2026-04-19 09:57 | 52.40609 | -1.71972 | 10334 ft | 207 kts | 145° |
| 2026-04-19 09:57 | 52.39426 | -1.70631 | 10336 ft | 207 kts | 145° |
| 2026-04-19 09:57 | 52.38249 | -1.69297 | 10333 ft | 208 kts | 145° |
| 2026-04-19 09:57 | 52.37058 | -1.67948 | 10335 ft | 207 kts | 145° |
| 2026-04-19 09:58 | 52.35863 | -1.66619 | 10327 ft | 207 kts | 150° |
| 2026-04-19 09:58 | 52.34544 | -1.65761 | 10329 ft | 206 kts | 163° |
| 2026-04-19 09:58 | 52.33170 | -1.65047 | 10327 ft | 206 kts | 164° |
| 2026-04-19 09:58 | 52.31817 | -1.64347 | 10327 ft | 206 kts | 164° |
| 2026-04-19 09:59 | 52.30454 | -1.63640 | 10327 ft | 206 kts | 164° |
| 2026-04-19 09:59 | 52.29074 | -1.62921 | 10328 ft | 206 kts | 163° |
| 2026-04-19 09:59 | 52.27712 | -1.62211 | 10328 ft | 207 kts | 164° |
| 2026-04-19 09:59 | 52.26333 | -1.61493 | 10327 ft | 207 kts | 163° |
| 2026-04-19 10:00 | 52.24976 | -1.60786 | 10326 ft | 207 kts | 163° |
| 2026-04-19 10:00 | 52.23596 | -1.60067 | 10323 ft | 207 kts | 163° |
| 2026-04-19 10:00 | 52.22236 | -1.59359 | 10324 ft | 207 kts | 164° |
| 2026-04-19 10:00 | 52.20865 | -1.58646 | 10323 ft | 207 kts | 164° |
| 2026-04-19 10:01 | 52.19498 | -1.57935 | 10324 ft | 206 kts | 164° |
| 2026-04-19 10:01 | 52.18137 | -1.57228 | 10323 ft | 206 kts | 164° |
| 2026-04-19 10:01 | 52.16775 | -1.56521 | 10319 ft | 206 kts | 163° |
| 2026-04-19 10:01 | 52.15406 | -1.55810 | 10313 ft | 207 kts | 163° |
| 2026-04-19 10:02 | 52.14034 | -1.55099 | 10309 ft | 207 kts | 163° |
| 2026-04-19 10:02 | 52.12663 | -1.54388 | 10315 ft | 207 kts | 163° |
| 2026-04-19 10:02 | 52.11295 | -1.53679 | 10315 ft | 207 kts | 163° |
| 2026-04-19 10:02 | 52.09932 | -1.52974 | 10313 ft | 207 kts | 163° |
| 2026-04-19 10:03 | 52.08561 | -1.52264 | 10310 ft | 206 kts | 163° |
| 2026-04-19 10:03 | 52.07190 | -1.51556 | 10321 ft | 206 kts | 163° |
| 2026-04-19 10:03 | 52.05825 | -1.50850 | 10316 ft | 206 kts | 163° |
| 2026-04-19 10:03 | 52.04470 | -1.50151 | 10318 ft | 205 kts | 163° |
| 2026-04-19 10:04 | 52.03117 | -1.49453 | 10325 ft | 205 kts | 163° |
| 2026-04-19 10:04 | 52.01747 | -1.48747 | 10327 ft | 205 kts | 164° |
| 2026-04-19 10:04 | 52.00397 | -1.48051 | 10322 ft | 206 kts | 163° |
| 2026-04-19 10:04 | 51.99025 | -1.47345 | 10324 ft | 205 kts | 163° |
| 2026-04-19 10:05 | 51.97668 | -1.46647 | 10325 ft | 206 kts | 163° |
| 2026-04-19 10:05 | 51.96301 | -1.45944 | 10325 ft | 206 kts | 163° |
| 2026-04-19 10:05 | 51.94946 | -1.45246 | 10325 ft | 207 kts | 164° |
| 2026-04-19 10:05 | 51.93571 | -1.44540 | 10326 ft | 207 kts | 164° |
| 2026-04-19 10:06 | 51.92192 | -1.43833 | 10329 ft | 207 kts | 163° |
| 2026-04-19 10:06 | 51.90825 | -1.43131 | 10326 ft | 207 kts | 163° |
| 2026-04-19 10:06 | 51.89475 | -1.42439 | 10324 ft | 206 kts | 163° |
| 2026-04-19 10:06 | 51.88095 | -1.41732 | 10323 ft | 205 kts | 163° |
| 2026-04-19 10:07 | 51.86736 | -1.41036 | 10325 ft | 205 kts | 163° |
| 2026-04-19 10:07 | 51.85390 | -1.40348 | 10325 ft | 205 kts | 164° |
| 2026-04-19 10:07 | 51.84025 | -1.39650 | 10325 ft | 205 kts | 163° |
| 2026-04-19 10:07 | 51.82669 | -1.38957 | 10326 ft | 205 kts | 163° |
| 2026-04-19 10:08 | 51.81308 | -1.38261 | 10325 ft | 205 kts | 163° |
| 2026-04-19 10:08 | 51.79962 | -1.37575 | 10325 ft | 203 kts | 163° |
| 2026-04-19 10:08 | 51.78615 | -1.36888 | 10324 ft | 202 kts | 163° |
| 2026-04-19 10:08 | 51.77291 | -1.36213 | 10324 ft | 201 kts | 163° |
| 2026-04-19 10:09 | 51.75958 | -1.35534 | 10325 ft | 201 kts | 163° |
| 2026-04-19 10:09 | 51.74621 | -1.34853 | 10325 ft | 200 kts | 165° |
| 2026-04-19 10:09 | 51.73288 | -1.34174 | 10323 ft | 200 kts | 165° |
| 2026-04-19 10:09 | 51.71965 | -1.33502 | 10323 ft | 200 kts | 164° |
| 2026-04-19 10:10 | 51.70654 | -1.32836 | 10322 ft | 200 kts | 165° |
| 2026-04-19 10:10 | 51.69329 | -1.32163 | 10321 ft | 197 kts | 165° |
| 2026-04-19 10:10 | 51.68032 | -1.31504 | 10321 ft | 194 kts | 165° |
| 2026-04-19 10:10 | 51.66748 | -1.30853 | 10322 ft | 192 kts | 165° |
| 2026-04-19 10:11 | 51.65476 | -1.30208 | 10321 ft | 190 kts | 164° |
| 2026-04-19 10:11 | 51.64215 | -1.29569 | 10319 ft | 188 kts | 165° |
| 2026-04-19 10:11 | 51.62976 | -1.28941 | 10319 ft | 186 kts | 165° |
| 2026-04-19 10:11 | 51.61751 | -1.28321 | 10320 ft | 184 kts | 165° |
| 2026-04-19 10:12 | 51.60536 | -1.27706 | 10320 ft | 183 kts | 165° |
| 2026-04-19 10:12 | 51.59330 | -1.27097 | 10319 ft | 181 kts | 165° |
| 2026-04-19 10:12 | 51.58128 | -1.26490 | 10318 ft | 180 kts | 164° |
| 2026-04-19 10:12 | 51.56943 | -1.25891 | 10317 ft | 178 kts | 164° |
| 2026-04-19 10:13 | 51.55769 | -1.25298 | 10317 ft | 177 kts | 164° |
| 2026-04-19 10:13 | 51.54591 | -1.24704 | 10316 ft | 176 kts | 164° |
| 2026-04-19 10:13 | 51.53436 | -1.24122 | 10318 ft | 174 kts | 164° |
| 2026-04-19 10:13 | 51.52279 | -1.23539 | 10319 ft | 173 kts | 164° |
| 2026-04-19 10:14 | 51.51121 | -1.22955 | 10269 ft | 176 kts | 165° |
| 2026-04-19 10:14 | 51.49942 | -1.22363 | 10168 ft | 179 kts | 165° |
| 2026-04-19 10:14 | 51.48777 | -1.21690 | 10050 ft | 178 kts | 158° |
| 2026-04-19 10:14 | 51.47661 | -1.20873 | 9922 ft | 177 kts | 156° |
| 2026-04-19 10:15 | 51.46539 | -1.20042 | 9789 ft | 176 kts | 156° |
| 2026-04-19 10:15 | 51.45432 | -1.19222 | 9660 ft | 176 kts | 156° |
| 2026-04-19 10:15 | 51.44326 | -1.18406 | 9533 ft | 175 kts | 156° |
| 2026-04-19 10:15 | 51.43225 | -1.17594 | 9406 ft | 174 kts | 156° |
| 2026-04-19 10:16 | 51.42122 | -1.16781 | 9283 ft | 172 kts | 156° |
| 2026-04-19 10:16 | 51.41051 | -1.15993 | 9170 ft | 169 kts | 156° |
| 2026-04-19 10:16 | 51.39982 | -1.15206 | 9051 ft | 167 kts | 156° |
| 2026-04-19 10:16 | 51.38931 | -1.14433 | 8929 ft | 166 kts | 156° |
| 2026-04-19 10:17 | 51.37895 | -1.13671 | 8801 ft | 165 kts | 156° |
| 2026-04-19 10:17 | 51.36855 | -1.12908 | 8672 ft | 164 kts | 156° |
| 2026-04-19 10:17 | 51.35823 | -1.12150 | 8541 ft | 164 kts | 156° |
| 2026-04-19 10:17 | 51.34782 | -1.11386 | 8406 ft | 163 kts | 156° |
| 2026-04-19 10:18 | 51.33749 | -1.10628 | 8274 ft | 163 kts | 156° |
| 2026-04-19 10:18 | 51.32723 | -1.09876 | 8143 ft | 163 kts | 156° |
| 2026-04-19 10:18 | 51.31694 | -1.09122 | 8014 ft | 163 kts | 156° |
| 2026-04-19 10:19 | 51.29647 | -1.07624 | 7752 ft | 162 kts | 155° |
| 2026-04-19 10:19 | 51.28623 | -1.06875 | 7627 ft | 161 kts | 155° |
| 2026-04-19 10:19 | 51.27596 | -1.06124 | 7505 ft | 161 kts | 155° |
| 2026-04-19 10:19 | 51.26589 | -1.05388 | 7386 ft | 161 kts | 155° |
| 2026-04-19 10:20 | 51.25568 | -1.04642 | 7264 ft | 160 kts | 155° |
| 2026-04-19 10:20 | 51.24551 | -1.03899 | 7145 ft | 160 kts | 155° |
| 2026-04-19 10:20 | 51.23534 | -1.03157 | 7027 ft | 161 kts | 155° |
| 2026-04-19 10:20 | 51.22514 | -1.02413 | 6917 ft | 162 kts | 155° |
| 2026-04-19 10:21 | 51.21493 | -1.01669 | 6815 ft | 163 kts | 155° |
| 2026-04-19 10:21 | 51.20456 | -1.00914 | 6721 ft | 163 kts | 155° |
| 2026-04-19 10:21 | 51.19421 | -1.00160 | 6628 ft | 164 kts | 155° |
| 2026-04-19 10:21 | 51.18393 | -0.99412 | 6534 ft | 164 kts | 155° |
| 2026-04-19 10:22 | 51.17344 | -0.98650 | 6443 ft | 164 kts | 154° |
| 2026-04-19 10:22 | 51.16310 | -0.97897 | 6354 ft | 164 kts | 155° |
| 2026-04-19 10:22 | 51.15272 | -0.97142 | 6271 ft | 164 kts | 155° |
| 2026-04-19 10:22 | 51.14241 | -0.96392 | 6189 ft | 164 kts | 155° |
| 2026-04-19 10:23 | 51.13201 | -0.95637 | 6107 ft | 163 kts | 155° |
| 2026-04-19 10:23 | 51.12168 | -0.94887 | 6003 ft | 165 kts | 155° |
| 2026-04-19 10:23 | 51.11109 | -0.94120 | 5898 ft | 166 kts | 155° |
| 2026-04-19 10:23 | 51.10054 | -0.93355 | 5799 ft | 167 kts | 155° |
| 2026-04-19 10:24 | 51.08998 | -0.92590 | 5705 ft | 167 kts | 155° |
| 2026-04-19 10:24 | 51.07939 | -0.91822 | 5612 ft | 167 kts | 155° |
| 2026-04-19 10:24 | 51.06877 | -0.91054 | 5526 ft | 167 kts | 155° |
| 2026-04-19 10:24 | 51.05819 | -0.90288 | 5442 ft | 167 kts | 154° |
| 2026-04-19 10:25 | 51.04752 | -0.89516 | 5356 ft | 167 kts | 154° |
| 2026-04-19 10:25 | 51.03704 | -0.88759 | 5271 ft | 167 kts | 154° |
| 2026-04-19 10:25 | 51.02637 | -0.87987 | 5183 ft | 167 kts | 154° |
| 2026-04-19 10:25 | 51.01581 | -0.87225 | 5102 ft | 167 kts | 154° |
| 2026-04-19 10:26 | 51.00523 | -0.86462 | 5021 ft | 166 kts | 154° |
| 2026-04-19 10:26 | 50.99484 | -0.85711 | 4942 ft | 166 kts | 154° |
| 2026-04-19 10:26 | 50.98422 | -0.84946 | 4858 ft | 166 kts | 154° |
| 2026-04-19 10:26 | 50.97377 | -0.84193 | 4775 ft | 166 kts | 154° |
| 2026-04-19 10:27 | 50.96334 | -0.83441 | 4695 ft | 166 kts | 154° |
| 2026-04-19 10:27 | 50.95277 | -0.82680 | 4611 ft | 165 kts | 154° |
| 2026-04-19 10:27 | 50.94242 | -0.81936 | 4516 ft | 161 kts | 154° |
| 2026-04-19 10:27 | 50.93227 | -0.81206 | 4407 ft | 158 kts | 153° |
| 2026-04-19 10:28 | 50.92232 | -0.80490 | 4291 ft | 157 kts | 153° |
| 2026-04-19 10:28 | 50.91246 | -0.79781 | 4169 ft | 155 kts | 153° |
| 2026-04-19 10:28 | 50.90274 | -0.79083 | 4045 ft | 154 kts | 153° |
| 2026-04-19 10:28 | 50.89298 | -0.78382 | 3920 ft | 154 kts | 153° |
| 2026-04-19 10:29 | 50.88318 | -0.77679 | 3789 ft | 153 kts | 153° |
| 2026-04-19 10:29 | 50.87349 | -0.76983 | 3658 ft | 153 kts | 153° |
| 2026-04-19 10:29 | 50.86374 | -0.76284 | 3529 ft | 153 kts | 153° |
| 2026-04-19 10:29 | 50.85500 | -0.75387 | 3391 ft | 149 kts | 126° |
| 2026-04-19 10:30 | 50.84916 | -0.74060 | 3266 ft | 147 kts | 117° |
| 2026-04-19 10:30 | 50.84384 | -0.72688 | 3143 ft | 146 kts | 116° |
| 2026-04-19 10:30 | 50.83860 | -0.71326 | 3020 ft | 146 kts | 116° |
| 2026-04-19 10:30 | 50.83327 | -0.69937 | 2899 ft | 146 kts | 116° |
| 2026-04-19 10:31 | 50.82801 | -0.68564 | 2779 ft | 146 kts | 116° |
| 2026-04-19 10:31 | 50.82275 | -0.67194 | 2663 ft | 147 kts | 116° |
| 2026-04-19 10:31 | 50.81744 | -0.65809 | 2547 ft | 147 kts | 116° |
| 2026-04-19 10:31 | 50.81216 | -0.64435 | 2438 ft | 146 kts | 116° |
| 2026-04-19 10:32 | 50.80694 | -0.63080 | 2375 ft | 143 kts | 116° |
| 2026-04-19 10:32 | 50.80185 | -0.61756 | 2307 ft | 140 kts | 116° |
| 2026-04-19 10:32 | 50.79678 | -0.60439 | 2231 ft | 140 kts | 115° |
| 2026-04-19 10:32 | 50.79171 | -0.59119 | 2170 ft | 140 kts | 115° |
| 2026-04-19 10:33 | 50.78672 | -0.57825 | 2170 ft | 135 kts | 115° |
| 2026-04-19 10:33 | 50.78186 | -0.56566 | 2164 ft | 132 kts | 115° |
| 2026-04-19 10:33 | 50.77715 | -0.55348 | 2162 ft | 130 kts | 115° |
| 2026-04-19 10:33 | 50.77253 | -0.54156 | 2159 ft | 119 kts | 115° |
| 2026-04-19 10:34 | 50.76841 | -0.53095 | 2163 ft | 110 kts | 114° |
| 2026-04-19 10:34 | 50.76444 | -0.52065 | 2162 ft | 111 kts | 114° |
| 2026-04-19 10:34 | 50.76043 | -0.51020 | 2162 ft | 112 kts | 114° |
| 2026-04-19 10:34 | 50.75637 | -0.49965 | 2160 ft | 112 kts | 114° |
| 2026-04-19 10:35 | 50.75235 | -0.48920 | 2163 ft | 111 kts | 114° |
| 2026-04-19 10:35 | 50.74831 | -0.47871 | 2163 ft | 111 kts | 114° |
| 2026-04-19 10:35 | 50.74434 | -0.46840 | 2165 ft | 111 kts | 114° |
| 2026-04-19 10:35 | 50.74033 | -0.45793 | 2161 ft | 111 kts | 112° |
| 2026-04-19 10:36 | 50.73729 | -0.44698 | 2159 ft | 109 kts | 104° |
| 2026-04-19 10:36 | 50.73451 | -0.43585 | 2157 ft | 109 kts | 104° |
| 2026-04-19 10:36 | 50.73173 | -0.42468 | 2157 ft | 109 kts | 104° |
| 2026-04-19 10:36 | 50.72894 | -0.41353 | 2157 ft | 110 kts | 104° |
| 2026-04-19 10:37 | 50.72614 | -0.40231 | 2159 ft | 110 kts | 104° |
| 2026-04-19 10:37 | 50.72329 | -0.39094 | 2158 ft | 110 kts | 104° |
| 2026-04-19 10:37 | 50.72164 | -0.37956 | 2154 ft | 103 kts | 76° |
| 2026-04-19 10:37 | 50.72498 | -0.37041 | 2159 ft | 96 kts | 36° |
| 2026-04-19 10:38 | 50.73063 | -0.36501 | 2159 ft | 96 kts | 26° |
| 2026-04-19 10:38 | 50.73669 | -0.36032 | 2159 ft | 96 kts | 23° |
| 2026-04-19 10:38 | 50.74279 | -0.35600 | 2152 ft | 97 kts | 22° |
| 2026-04-19 10:38 | 50.74894 | -0.35190 | 2017 ft | 94 kts | 21° |
| 2026-04-19 10:39 | 50.75491 | -0.34798 | 1885 ft | 92 kts | 22° |
| 2026-04-19 10:39 | 50.76076 | -0.34419 | 1751 ft | 91 kts | 21° |
| 2026-04-19 10:39 | 50.76666 | -0.34042 | 1613 ft | 91 kts | 21° |
| 2026-04-19 10:39 | 50.77265 | -0.33663 | 1474 ft | 94 kts | 22° |
| 2026-04-19 10:40 | 50.77883 | -0.33274 | 1327 ft | 96 kts | 22° |
| 2026-04-19 10:40 | 50.78506 | -0.32883 | 1179 ft | 97 kts | 19° |
| 2026-04-19 10:40 | 50.79134 | -0.32492 | 1031 ft | 98 kts | 19° |
| 2026-04-19 10:40 | 50.79771 | -0.32096 | 879 ft | 99 kts | 20° |
| 2026-04-19 10:41 | 50.80407 | -0.31698 | 725 ft | 99 kts | 19° |
| 2026-04-19 10:41 | 50.81056 | -0.31293 | 569 ft | 101 kts | 19° |
| 2026-04-19 10:41 | 50.81710 | -0.30884 | 414 ft | 101 kts | 20° |
| 2026-04-19 10:41 | 50.82363 | -0.30479 | 249 ft | 99 kts | 22° |
| 2026-04-19 10:42 | 50.82984 | -0.30073 | 97 ft | 96 kts | 18° |
| 2026-04-19 10:42 | 50.83579 | -0.29708 | 2 ft | 81 kts | 19° |
| 2026-04-19 10:42 | 50.83914 | -0.29507 | 5 ft | 26 kts | 19° |
| 2026-04-19 10:42 | 50.83991 | -0.29439 | 5 ft | 9 kts | 84° |
| 2026-04-19 10:43 | 50.83965 | -0.29336 | 4 ft | 9 kts | 135° |
| 2026-04-19 10:43 | 50.83946 | -0.29326 | 4 ft | 0 kts | 180° |
| 2026-04-19 10:44 | 50.83941 | -0.29326 | 4 ft | 3 kts | 183° |
| 2026-04-19 10:44 | 50.83893 | -0.29331 | 4 ft | 9 kts | 185° |
| 2026-04-19 10:44 | 50.83829 | -0.29308 | 3 ft | 9 kts | 144° |
| 2026-04-19 10:44 | 50.83789 | -0.29227 | 2 ft | 9 kts | 122° |
| 2026-04-19 10:45 | 50.83753 | -0.29143 | 1 ft | 9 kts | 125° |
| 2026-04-19 10:45 | 50.83717 | -0.29064 | 1 ft | 8 kts | 125° |
| 2026-04-19 10:45 | 50.83682 | -0.28983 | 1 ft | 9 kts | 126° |
| 2026-04-19 10:45 | 50.83643 | -0.28893 | 1 ft | 9 kts | 124° |
| 2026-04-19 10:46 | 50.83602 | -0.28826 | 1 ft | 7 kts | 153° |
| 2026-04-19 10:46 | 50.83547 | -0.28808 | 2 ft | 8 kts | 190° |
| 2026-04-19 10:46 | 50.83503 | -0.28871 | 2 ft | 8 kts | 250° |
| 2026-04-19 10:46 | 50.83489 | -0.28953 | 2 ft | 6 kts | 243° |
| 2026-04-19 10:47 | 50.83454 | -0.28994 | 2 ft | 5 kts | 246° |
| 2026-04-19 10:47 | 50.83451 | -0.29010 | 2 ft | 0 kts | 252° |